sensor_id;sensor_type;location;lat;lon;timestamp;temperature;humidity
25949;DHT22;13961;51.178;4.448;2024-03-02T00:02:14;7.70;99.90
25949;DHT22;13961;51.178;4.448;2024-03-02T00:04:40;7.70;99.90
25949;DHT22;13961;51.178;4.448;2024-03-02T00:07:06;7.60;99.90
25949;DHT22;13961;51.178;4.448;2024-03-02T00:09:33;7.70;99.90
25949;DHT22;13961;51.178;4.448;2024-03-02T00:12:00;7.80;99.90
25949;DHT22;13961;51.178;4.448;2024-03-02T00:14:29;7.80;99.90
25949;DHT22;13961;51.178;4.448;2024-03-02T00:16:55;7.50;99.90
25949;DHT22;13961;51.178;4.448;2024-03-02T00:19:21;7.50;99.90
25949;DHT22;13961;51.178;4.448;2024-03-02T00:21:47;7.40;99.90
25949;DHT22;13961;51.178;4.448;2024-03-02T00:24:24;7.40;99.90
25949;DHT22;13961;51.178;4.448;2024-03-02T00:26:55;7.30;99.90
25949;DHT22;13961;51.178;4.448;2024-03-02T00:29:21;7.60;99.90
25949;DHT22;13961;51.178;4.448;2024-03-02T00:31:46;7.30;99.90
25949;DHT22;13961;51.178;4.448;2024-03-02T00:34:14;7.50;99.90
25949;DHT22;13961;51.178;4.448;2024-03-02T00:36:41;7.60;99.90
25949;DHT22;13961;51.178;4.448;2024-03-02T00:39:07;7.60;99.90
25949;DHT22;13961;51.178;4.448;2024-03-02T00:41:33;7.70;99.90
25949;DHT22;13961;51.178;4.448;2024-03-02T00:44:03;7.50;99.90
25949;DHT22;13961;51.178;4.448;2024-03-02T00:46:41;7.50;99.90
25949;DHT22;13961;51.178;4.448;2024-03-02T00:49:21;7.40;99.90
25949;DHT22;13961;51.178;4.448;2024-03-02T00:51:48;7.50;99.90
25949;DHT22;13961;51.178;4.448;2024-03-02T00:54:14;7.60;99.90
25949;DHT22;13961;51.178;4.448;2024-03-02T00:56:41;7.80;99.90
25949;DHT22;13961;51.178;4.448;2024-03-02T00:59:07;7.70;99.90
25949;DHT22;13961;51.178;4.448;2024-03-02T01:01:34;7.60;99.90
25949;DHT22;13961;51.178;4.448;2024-03-02T01:03:59;7.60;99.90
25949;DHT22;13961;51.178;4.448;2024-03-02T01:06:25;7.60;99.90
25949;DHT22;13961;51.178;4.448;2024-03-02T01:08:51;7.50;99.90
25949;DHT22;13961;51.178;4.448;2024-03-02T01:11:17;7.40;99.90
25949;DHT22;13961;51.178;4.448;2024-03-02T01:13:49;7.40;99.90
25949;DHT22;13961;51.178;4.448;2024-03-02T01:16:15;7.40;99.90
25949;DHT22;13961;51.178;4.448;2024-03-02T01:18:41;7.40;99.90
25949;DHT22;13961;51.178;4.448;2024-03-02T01:21:07;7.50;99.90
25949;DHT22;13961;51.178;4.448;2024-03-02T01:23:33;7.50;99.90
25949;DHT22;13961;51.178;4.448;2024-03-02T01:25:59;7.50;99.90
25949;DHT22;13961;51.178;4.448;2024-03-02T01:28:24;7.60;99.90
25949;DHT22;13961;51.178;4.448;2024-03-02T01:30:50;7.70;99.90
25949;DHT22;13961;51.178;4.448;2024-03-02T01:33:17;7.50;99.90
25949;DHT22;13961;51.178;4.448;2024-03-02T01:35:43;7.70;99.90
25949;DHT22;13961;51.178;4.448;2024-03-02T01:38:09;7.80;99.90
25949;DHT22;13961;51.178;4.448;2024-03-02T01:40:35;7.60;99.90
25949;DHT22;13961;51.178;4.448;2024-03-02T01:43:00;7.60;99.90
25949;DHT22;13961;51.178;4.448;2024-03-02T01:45:28;7.80;99.90
25949;DHT22;13961;51.178;4.448;2024-03-02T01:47:53;7.50;99.90
25949;DHT22;13961;51.178;4.448;2024-03-02T01:50:29;7.60;99.90
25949;DHT22;13961;51.178;4.448;2024-03-02T01:52:56;7.30;99.90
25949;DHT22;13961;51.178;4.448;2024-03-02T01:55:21;7.30;99.90
25949;DHT22;13961;51.178;4.448;2024-03-02T01:57:51;7.40;99.90
25949;DHT22;13961;51.178;4.448;2024-03-02T02:00:18;7.50;99.90
25949;DHT22;13961;51.178;4.448;2024-03-02T02:02:45;7.40;99.90
25949;DHT22;13961;51.178;4.448;2024-03-02T02:05:11;7.60;99.90
25949;DHT22;13961;51.178;4.448;2024-03-02T02:07:37;7.50;99.90
25949;DHT22;13961;51.178;4.448;2024-03-02T02:10:03;7.50;99.90
25949;DHT22;13961;51.178;4.448;2024-03-02T02:12:28;7.50;99.90
25949;DHT22;13961;51.178;4.448;2024-03-02T02:14:54;7.40;99.90
25949;DHT22;13961;51.178;4.448;2024-03-02T02:17:19;7.50;99.90
25949;DHT22;13961;51.178;4.448;2024-03-02T02:19:45;7.40;99.90
25949;DHT22;13961;51.178;4.448;2024-03-02T02:22:11;7.30;99.90
25949;DHT22;13961;51.178;4.448;2024-03-02T02:24:42;7.50;99.90
25949;DHT22;13961;51.178;4.448;2024-03-02T02:27:09;7.50;99.90
25949;DHT22;13961;51.178;4.448;2024-03-02T02:29:35;7.50;99.90
25949;DHT22;13961;51.178;4.448;2024-03-02T02:32:01;7.60;99.90
25949;DHT22;13961;51.178;4.448;2024-03-02T02:34:27;7.60;99.90
25949;DHT22;13961;51.178;4.448;2024-03-02T02:36:53;7.40;99.90
25949;DHT22;13961;51.178;4.448;2024-03-02T02:39:21;7.40;99.90
25949;DHT22;13961;51.178;4.448;2024-03-02T02:41:48;7.30;99.90
25949;DHT22;13961;51.178;4.448;2024-03-02T02:44:14;7.20;99.90
25949;DHT22;13961;51.178;4.448;2024-03-02T02:46:40;7.20;99.90
25949;DHT22;13961;51.178;4.448;2024-03-02T02:49:06;7.40;99.90
25949;DHT22;13961;51.178;4.448;2024-03-02T02:51:32;7.50;99.90
25949;DHT22;13961;51.178;4.448;2024-03-02T02:53:58;7.40;99.90
25949;DHT22;13961;51.178;4.448;2024-03-02T02:56:23;7.50;99.90
25949;DHT22;13961;51.178;4.448;2024-03-02T02:58:49;7.40;99.90
25949;DHT22;13961;51.178;4.448;2024-03-02T03:01:15;7.50;99.90
25949;DHT22;13961;51.178;4.448;2024-03-02T03:03:46;7.50;99.90
25949;DHT22;13961;51.178;4.448;2024-03-02T03:06:12;7.50;99.90
25949;DHT22;13961;51.178;4.448;2024-03-02T03:08:38;7.50;99.90
25949;DHT22;13961;51.178;4.448;2024-03-02T03:11:06;7.50;99.90
25949;DHT22;13961;51.178;4.448;2024-03-02T03:13:33;7.60;99.90
25949;DHT22;13961;51.178;4.448;2024-03-02T03:15:59;7.60;99.90
25949;DHT22;13961;51.178;4.448;2024-03-02T03:18:24;7.70;99.90
25949;DHT22;13961;51.178;4.448;2024-03-02T03:20:50;7.50;99.90
25949;DHT22;13961;51.178;4.448;2024-03-02T03:23:16;7.50;99.90
25949;DHT22;13961;51.178;4.448;2024-03-02T03:25:43;7.50;99.90
25949;DHT22;13961;51.178;4.448;2024-03-02T03:28:08;7.40;99.90
25949;DHT22;13961;51.178;4.448;2024-03-02T03:30:38;7.50;99.90
25949;DHT22;13961;51.178;4.448;2024-03-02T03:33:04;7.60;99.90
25949;DHT22;13961;51.178;4.448;2024-03-02T03:35:31;7.70;99.90
25949;DHT22;13961;51.178;4.448;2024-03-02T03:37:57;7.70;99.90
25949;DHT22;13961;51.178;4.448;2024-03-02T03:40:23;7.70;99.90
25949;DHT22;13961;51.178;4.448;2024-03-02T03:42:48;7.60;99.90
25949;DHT22;13961;51.178;4.448;2024-03-02T03:45:15;7.70;99.90
25949;DHT22;13961;51.178;4.448;2024-03-02T03:47:41;7.60;99.90
25949;DHT22;13961;51.178;4.448;2024-03-02T03:50:07;7.60;99.90
25949;DHT22;13961;51.178;4.448;2024-03-02T03:52:33;7.60;99.90
25949;DHT22;13961;51.178;4.448;2024-03-02T03:54:59;7.50;99.90
25949;DHT22;13961;51.178;4.448;2024-03-02T03:57:25;7.60;99.90
25949;DHT22;13961;51.178;4.448;2024-03-02T03:59:52;7.40;99.90
25949;DHT22;13961;51.178;4.448;2024-03-02T04:02:17;7.60;99.90
25949;DHT22;13961;51.178;4.448;2024-03-02T04:04:43;7.20;99.90
25949;DHT22;13961;51.178;4.448;2024-03-02T04:07:09;7.30;99.90
25949;DHT22;13961;51.178;4.448;2024-03-02T04:09:34;7.20;99.90
25949;DHT22;13961;51.178;4.448;2024-03-02T04:12:00;7.00;99.90
25949;DHT22;13961;51.178;4.448;2024-03-02T04:14:26;7.10;99.90
25949;DHT22;13961;51.178;4.448;2024-03-02T04:16:51;7.10;99.90
25949;DHT22;13961;51.178;4.448;2024-03-02T04:19:17;7.00;99.90
25949;DHT22;13961;51.178;4.448;2024-03-02T04:21:42;7.10;99.90
25949;DHT22;13961;51.178;4.448;2024-03-02T04:24:08;7.20;99.90
25949;DHT22;13961;51.178;4.448;2024-03-02T04:26:33;7.10;99.90
25949;DHT22;13961;51.178;4.448;2024-03-02T04:28:59;7.10;99.90
25949;DHT22;13961;51.178;4.448;2024-03-02T04:31:25;7.20;99.90
25949;DHT22;13961;51.178;4.448;2024-03-02T04:33:50;7.20;99.90
25949;DHT22;13961;51.178;4.448;2024-03-02T04:36:16;7.20;99.90
25949;DHT22;13961;51.178;4.448;2024-03-02T04:38:41;7.10;99.90
25949;DHT22;13961;51.178;4.448;2024-03-02T04:41:07;7.00;99.90
25949;DHT22;13961;51.178;4.448;2024-03-02T04:43:33;6.80;99.90
25949;DHT22;13961;51.178;4.448;2024-03-02T04:46:00;6.80;99.90
25949;DHT22;13961;51.178;4.448;2024-03-02T04:48:26;7.00;99.90
25949;DHT22;13961;51.178;4.448;2024-03-02T04:50:51;6.90;99.90
25949;DHT22;13961;51.178;4.448;2024-03-02T04:53:17;6.90;99.90
25949;DHT22;13961;51.178;4.448;2024-03-02T04:55:43;7.20;99.90
25949;DHT22;13961;51.178;4.448;2024-03-02T04:58:09;6.90;99.90
25949;DHT22;13961;51.178;4.448;2024-03-02T05:00:35;6.90;99.90
25949;DHT22;13961;51.178;4.448;2024-03-02T05:03:01;7.00;99.90
25949;DHT22;13961;51.178;4.448;2024-03-02T05:05:26;6.90;99.90
25949;DHT22;13961;51.178;4.448;2024-03-02T05:07:52;7.00;99.90
25949;DHT22;13961;51.178;4.448;2024-03-02T05:10:18;6.90;99.90
25949;DHT22;13961;51.178;4.448;2024-03-02T05:12:43;7.00;99.90
25949;DHT22;13961;51.178;4.448;2024-03-02T05:15:13;6.80;99.90
25949;DHT22;13961;51.178;4.448;2024-03-02T05:17:40;6.80;99.90
25949;DHT22;13961;51.178;4.448;2024-03-02T05:20:08;6.90;99.90
25949;DHT22;13961;51.178;4.448;2024-03-02T05:22:34;6.60;99.90
25949;DHT22;13961;51.178;4.448;2024-03-02T05:25:01;6.80;99.90
25949;DHT22;13961;51.178;4.448;2024-03-02T05:27:27;6.80;99.90
25949;DHT22;13961;51.178;4.448;2024-03-02T05:29:53;6.50;99.90
25949;DHT22;13961;51.178;4.448;2024-03-02T05:32:18;6.50;99.90
25949;DHT22;13961;51.178;4.448;2024-03-02T05:34:44;6.50;99.90
25949;DHT22;13961;51.178;4.448;2024-03-02T05:37:10;6.40;99.90
25949;DHT22;13961;51.178;4.448;2024-03-02T05:39:35;6.40;99.90
25949;DHT22;13961;51.178;4.448;2024-03-02T05:42:01;6.30;99.90
25949;DHT22;13961;51.178;4.448;2024-03-02T05:44:26;6.40;99.90
25949;DHT22;13961;51.178;4.448;2024-03-02T05:46:52;6.30;99.90
25949;DHT22;13961;51.178;4.448;2024-03-02T05:49:18;6.40;99.90
25949;DHT22;13961;51.178;4.448;2024-03-02T05:51:43;6.30;99.90
25949;DHT22;13961;51.178;4.448;2024-03-02T05:54:09;6.40;99.90
25949;DHT22;13961;51.178;4.448;2024-03-02T05:56:35;6.30;99.90
25949;DHT22;13961;51.178;4.448;2024-03-02T05:59:01;6.40;99.90
25949;DHT22;13961;51.178;4.448;2024-03-02T06:01:47;6.20;99.90
25949;DHT22;13961;51.178;4.448;2024-03-02T06:04:13;6.30;99.90
25949;DHT22;13961;51.178;4.448;2024-03-02T06:06:40;6.40;99.90
25949;DHT22;13961;51.178;4.448;2024-03-02T06:09:06;6.20;99.90
25949;DHT22;13961;51.178;4.448;2024-03-02T06:11:38;6.20;99.90
25949;DHT22;13961;51.178;4.448;2024-03-02T06:14:05;6.20;99.90
25949;DHT22;13961;51.178;4.448;2024-03-02T06:16:32;6.20;99.90
25949;DHT22;13961;51.178;4.448;2024-03-02T06:18:58;6.20;99.90
25949;DHT22;13961;51.178;4.448;2024-03-02T06:21:24;6.40;99.90
25949;DHT22;13961;51.178;4.448;2024-03-02T06:23:50;6.10;99.90
25949;DHT22;13961;51.178;4.448;2024-03-02T06:26:15;6.10;99.90
25949;DHT22;13961;51.178;4.448;2024-03-02T06:28:41;6.20;99.90
25949;DHT22;13961;51.178;4.448;2024-03-02T06:31:07;6.10;99.90
25949;DHT22;13961;51.178;4.448;2024-03-02T06:33:33;6.20;99.90
25949;DHT22;13961;51.178;4.448;2024-03-02T06:35:58;6.10;99.90
25949;DHT22;13961;51.178;4.448;2024-03-02T06:38:24;6.10;99.90
25949;DHT22;13961;51.178;4.448;2024-03-02T06:40:49;6.00;99.90
25949;DHT22;13961;51.178;4.448;2024-03-02T06:43:15;6.00;99.90
25949;DHT22;13961;51.178;4.448;2024-03-02T06:45:41;6.00;99.90
25949;DHT22;13961;51.178;4.448;2024-03-02T06:48:07;6.20;99.90
25949;DHT22;13961;51.178;4.448;2024-03-02T06:50:32;6.00;99.90
25949;DHT22;13961;51.178;4.448;2024-03-02T06:52:58;6.00;99.90
25949;DHT22;13961;51.178;4.448;2024-03-02T06:55:24;6.00;99.90
25949;DHT22;13961;51.178;4.448;2024-03-02T06:57:50;6.20;99.90
25949;DHT22;13961;51.178;4.448;2024-03-02T07:00:16;6.10;99.90
25949;DHT22;13961;51.178;4.448;2024-03-02T07:02:46;6.10;99.90
25949;DHT22;13961;51.178;4.448;2024-03-02T07:05:12;6.00;99.90
25949;DHT22;13961;51.178;4.448;2024-03-02T07:07:38;6.00;99.90
25949;DHT22;13961;51.178;4.448;2024-03-02T07:10:04;6.10;99.90
25949;DHT22;13961;51.178;4.448;2024-03-02T07:12:30;6.10;99.90
25949;DHT22;13961;51.178;4.448;2024-03-02T07:14:56;6.20;99.90
25949;DHT22;13961;51.178;4.448;2024-03-02T07:17:37;6.30;99.90
25949;DHT22;13961;51.178;4.448;2024-03-02T07:20:03;6.40;99.90
25949;DHT22;13961;51.178;4.448;2024-03-02T07:22:30;6.40;99.90
25949;DHT22;13961;51.178;4.448;2024-03-02T07:24:55;6.30;99.90
25949;DHT22;13961;51.178;4.448;2024-03-02T07:27:21;6.50;99.90
25949;DHT22;13961;51.178;4.448;2024-03-02T07:29:47;6.50;99.90
25949;DHT22;13961;51.178;4.448;2024-03-02T07:32:12;6.50;99.90
25949;DHT22;13961;51.178;4.448;2024-03-02T07:34:38;7.30;99.90
25949;DHT22;13961;51.178;4.448;2024-03-02T07:37:04;7.70;99.90
25949;DHT22;13961;51.178;4.448;2024-03-02T07:39:30;8.10;99.90
25949;DHT22;13961;51.178;4.448;2024-03-02T07:41:55;8.60;99.90
25949;DHT22;13961;51.178;4.448;2024-03-02T07:44:21;9.00;99.90
25949;DHT22;13961;51.178;4.448;2024-03-02T07:46:48;9.50;99.90
25949;DHT22;13961;51.178;4.448;2024-03-02T07:49:17;9.60;99.90
25949;DHT22;13961;51.178;4.448;2024-03-02T07:51:43;9.70;99.90
25949;DHT22;13961;51.178;4.448;2024-03-02T07:54:09;9.70;99.90
25949;DHT22;13961;51.178;4.448;2024-03-02T07:56:35;9.60;99.90
25949;DHT22;13961;51.178;4.448;2024-03-02T07:59:03;9.60;99.90
25949;DHT22;13961;51.178;4.448;2024-03-02T08:01:30;9.70;99.90
25949;DHT22;13961;51.178;4.448;2024-03-02T08:04:00;10.00;99.90
25949;DHT22;13961;51.178;4.448;2024-03-02T08:06:27;10.20;99.90
25949;DHT22;13961;51.178;4.448;2024-03-02T08:09:02;10.60;99.90
25949;DHT22;13961;51.178;4.448;2024-03-02T08:11:30;10.40;99.90
25949;DHT22;13961;51.178;4.448;2024-03-02T08:13:56;11.00;99.90
25949;DHT22;13961;51.178;4.448;2024-03-02T08:16:25;10.90;99.90
25949;DHT22;13961;51.178;4.448;2024-03-02T08:18:51;10.90;99.90
25949;DHT22;13961;51.178;4.448;2024-03-02T08:21:17;11.30;99.90
25949;DHT22;13961;51.178;4.448;2024-03-02T08:23:43;11.20;99.90
25949;DHT22;13961;51.178;4.448;2024-03-02T08:26:10;11.50;99.90
25949;DHT22;13961;51.178;4.448;2024-03-02T08:28:35;11.60;99.90
25949;DHT22;13961;51.178;4.448;2024-03-02T08:31:06;11.40;99.90
25949;DHT22;13961;51.178;4.448;2024-03-02T08:33:32;11.40;99.90
25949;DHT22;13961;51.178;4.448;2024-03-02T08:35:59;11.00;99.90
25949;DHT22;13961;51.178;4.448;2024-03-02T08:38:24;10.90;99.90
25949;DHT22;13961;51.178;4.448;2024-03-02T08:40:50;11.40;99.90
25949;DHT22;13961;51.178;4.448;2024-03-02T08:43:16;11.30;99.90
25949;DHT22;13961;51.178;4.448;2024-03-02T08:45:43;11.00;99.90
25949;DHT22;13961;51.178;4.448;2024-03-02T08:48:08;10.80;99.90
25949;DHT22;13961;51.178;4.448;2024-03-02T08:50:35;10.70;99.90
25949;DHT22;13961;51.178;4.448;2024-03-02T08:53:01;10.90;99.90
25949;DHT22;13961;51.178;4.448;2024-03-02T08:55:26;10.90;99.90
25949;DHT22;13961;51.178;4.448;2024-03-02T08:57:52;10.80;99.90
25949;DHT22;13961;51.178;4.448;2024-03-02T09:00:18;10.70;99.90
25949;DHT22;13961;51.178;4.448;2024-03-02T09:02:44;10.20;99.90
25949;DHT22;13961;51.178;4.448;2024-03-02T09:05:10;9.80;99.90
25949;DHT22;13961;51.178;4.448;2024-03-02T09:07:36;9.60;99.90
25949;DHT22;13961;51.178;4.448;2024-03-02T09:10:04;9.70;99.90
25949;DHT22;13961;51.178;4.448;2024-03-02T09:12:30;9.70;99.90
25949;DHT22;13961;51.178;4.448;2024-03-02T09:14:56;9.70;99.90
25949;DHT22;13961;51.178;4.448;2024-03-02T09:17:22;9.60;99.90
25949;DHT22;13961;51.178;4.448;2024-03-02T09:19:48;9.60;99.90
25949;DHT22;13961;51.178;4.448;2024-03-02T09:22:14;9.50;99.90
25949;DHT22;13961;51.178;4.448;2024-03-02T09:24:39;9.60;99.90
25949;DHT22;13961;51.178;4.448;2024-03-02T09:27:05;9.80;99.90
25949;DHT22;13961;51.178;4.448;2024-03-02T09:29:31;9.90;99.90
25949;DHT22;13961;51.178;4.448;2024-03-02T09:31:56;10.10;99.90
25949;DHT22;13961;51.178;4.448;2024-03-02T09:34:22;10.10;99.90
25949;DHT22;13961;51.178;4.448;2024-03-02T09:36:48;10.10;99.90
25949;DHT22;13961;51.178;4.448;2024-03-02T09:39:14;10.30;99.90
25949;DHT22;13961;51.178;4.448;2024-03-02T09:41:39;10.20;99.90
25949;DHT22;13961;51.178;4.448;2024-03-02T09:44:06;10.20;99.90
25949;DHT22;13961;51.178;4.448;2024-03-02T09:46:32;10.30;99.90
25949;DHT22;13961;51.178;4.448;2024-03-02T09:48:58;10.20;99.90
25949;DHT22;13961;51.178;4.448;2024-03-02T09:51:24;10.30;99.90
25949;DHT22;13961;51.178;4.448;2024-03-02T09:53:50;10.40;99.90
25949;DHT22;13961;51.178;4.448;2024-03-02T09:56:16;10.40;99.90
25949;DHT22;13961;51.178;4.448;2024-03-02T09:58:41;10.70;99.90
25949;DHT22;13961;51.178;4.448;2024-03-02T10:01:08;10.70;99.90
25949;DHT22;13961;51.178;4.448;2024-03-02T10:03:36;10.60;99.90
25949;DHT22;13961;51.178;4.448;2024-03-02T10:06:27;10.50;99.90
25949;DHT22;13961;51.178;4.448;2024-03-02T10:08:54;10.50;99.90
25949;DHT22;13961;51.178;4.448;2024-03-02T10:11:27;10.50;99.90
25949;DHT22;13961;51.178;4.448;2024-03-02T10:14:13;10.40;99.90
25949;DHT22;13961;51.178;4.448;2024-03-02T10:16:43;10.50;99.90
25949;DHT22;13961;51.178;4.448;2024-03-02T10:19:19;10.60;99.90
25949;DHT22;13961;51.178;4.448;2024-03-02T10:21:49;10.80;99.90
25949;DHT22;13961;51.178;4.448;2024-03-02T10:24:17;10.80;99.90
25949;DHT22;13961;51.178;4.448;2024-03-02T10:26:43;10.90;99.90
25949;DHT22;13961;51.178;4.448;2024-03-02T10:29:10;11.00;99.90
25949;DHT22;13961;51.178;4.448;2024-03-02T10:31:41;11.10;99.90
25949;DHT22;13961;51.178;4.448;2024-03-02T10:34:07;11.40;99.90
25949;DHT22;13961;51.178;4.448;2024-03-02T10:36:34;11.50;99.90
25949;DHT22;13961;51.178;4.448;2024-03-02T10:39:03;11.70;99.90
25949;DHT22;13961;51.178;4.448;2024-03-02T10:41:32;11.60;99.90
25949;DHT22;13961;51.178;4.448;2024-03-02T10:43:59;11.70;99.90
25949;DHT22;13961;51.178;4.448;2024-03-02T10:46:31;11.80;99.90
25949;DHT22;13961;51.178;4.448;2024-03-02T10:48:58;12.00;99.90
25949;DHT22;13961;51.178;4.448;2024-03-02T10:51:28;11.90;99.90
25949;DHT22;13961;51.178;4.448;2024-03-02T10:53:57;12.00;99.90
25949;DHT22;13961;51.178;4.448;2024-03-02T10:56:28;12.10;99.90
25949;DHT22;13961;51.178;4.448;2024-03-02T10:59:03;11.90;99.90
25949;DHT22;13961;51.178;4.448;2024-03-02T11:01:31;11.80;99.90
25949;DHT22;13961;51.178;4.448;2024-03-02T11:03:57;11.70;99.90
25949;DHT22;13961;51.178;4.448;2024-03-02T11:06:24;11.80;99.90
25949;DHT22;13961;51.178;4.448;2024-03-02T11:08:53;11.80;99.90
25949;DHT22;13961;51.178;4.448;2024-03-02T11:11:29;11.90;99.90
25949;DHT22;13961;51.178;4.448;2024-03-02T11:13:57;11.80;99.90
25949;DHT22;13961;51.178;4.448;2024-03-02T11:16:37;11.80;99.90
25949;DHT22;13961;51.178;4.448;2024-03-02T11:19:10;11.60;99.90
25949;DHT22;13961;51.178;4.448;2024-03-02T11:21:36;11.60;99.90
25949;DHT22;13961;51.178;4.448;2024-03-02T11:26:47;11.90;99.90
25949;DHT22;13961;51.178;4.448;2024-03-02T11:32:00;12.00;99.90
25949;DHT22;13961;51.178;4.448;2024-03-02T11:34:34;12.10;99.90
25949;DHT22;13961;51.178;4.448;2024-03-02T11:37:04;12.20;99.90
25949;DHT22;13961;51.178;4.448;2024-03-02T11:39:30;12.40;99.90
25949;DHT22;13961;51.178;4.448;2024-03-02T11:41:56;12.50;99.90
25949;DHT22;13961;51.178;4.448;2024-03-02T11:44:26;12.60;99.90
25949;DHT22;13961;51.178;4.448;2024-03-02T11:46:58;12.40;99.90
25949;DHT22;13961;51.178;4.448;2024-03-02T11:49:49;12.30;99.90
25949;DHT22;13961;51.178;4.448;2024-03-02T11:52:16;12.50;99.90
25949;DHT22;13961;51.178;4.448;2024-03-02T11:54:44;12.60;99.90
25949;DHT22;13961;51.178;4.448;2024-03-02T11:57:18;12.40;99.90
25949;DHT22;13961;51.178;4.448;2024-03-02T11:59:45;12.60;99.90
25949;DHT22;13961;51.178;4.448;2024-03-02T12:02:21;12.70;99.90
25949;DHT22;13961;51.178;4.448;2024-03-02T12:04:48;12.80;99.90
25949;DHT22;13961;51.178;4.448;2024-03-02T12:07:23;12.70;99.90
25949;DHT22;13961;51.178;4.448;2024-03-02T12:09:59;12.70;99.90
25949;DHT22;13961;51.178;4.448;2024-03-02T12:12:25;12.80;99.90
25949;DHT22;13961;51.178;4.448;2024-03-02T12:14:53;12.80;99.90
25949;DHT22;13961;51.178;4.448;2024-03-02T12:17:21;13.10;99.90
25949;DHT22;13961;51.178;4.448;2024-03-02T12:19:46;13.40;99.90
25949;DHT22;13961;51.178;4.448;2024-03-02T12:22:12;13.60;99.90
25949;DHT22;13961;51.178;4.448;2024-03-02T12:24:38;13.70;99.90
25949;DHT22;13961;51.178;4.448;2024-03-02T12:27:05;13.70;99.90
25949;DHT22;13961;51.178;4.448;2024-03-02T12:29:31;13.70;99.90
25949;DHT22;13961;51.178;4.448;2024-03-02T12:31:57;13.80;99.90
25949;DHT22;13961;51.178;4.448;2024-03-02T12:34:22;13.60;99.90
25949;DHT22;13961;51.178;4.448;2024-03-02T12:36:49;13.60;99.90
25949;DHT22;13961;51.178;4.448;2024-03-02T12:39:18;13.70;99.90
25949;DHT22;13961;51.178;4.448;2024-03-02T12:41:44;13.70;99.90
25949;DHT22;13961;51.178;4.448;2024-03-02T12:44:10;13.50;99.90
25949;DHT22;13961;51.178;4.448;2024-03-02T12:46:35;13.30;99.90
25949;DHT22;13961;51.178;4.448;2024-03-02T12:49:11;13.20;99.90
25949;DHT22;13961;51.178;4.448;2024-03-02T12:51:41;13.30;99.90
25949;DHT22;13961;51.178;4.448;2024-03-02T12:54:08;13.40;99.90
25949;DHT22;13961;51.178;4.448;2024-03-02T12:56:35;13.50;99.90
25949;DHT22;13961;51.178;4.448;2024-03-02T12:59:01;13.70;99.90
25949;DHT22;13961;51.178;4.448;2024-03-02T13:01:27;13.70;99.90
25949;DHT22;13961;51.178;4.448;2024-03-02T13:03:53;13.70;99.90
25949;DHT22;13961;51.178;4.448;2024-03-02T13:06:23;13.60;99.90
25949;DHT22;13961;51.178;4.448;2024-03-02T13:08:49;13.70;99.90
25949;DHT22;13961;51.178;4.448;2024-03-02T13:11:16;13.50;99.90
25949;DHT22;13961;51.178;4.448;2024-03-02T13:13:42;13.50;99.90
25949;DHT22;13961;51.178;4.448;2024-03-02T13:16:09;13.30;99.90
25949;DHT22;13961;51.178;4.448;2024-03-02T13:18:35;13.30;99.90
25949;DHT22;13961;51.178;4.448;2024-03-02T13:21:01;13.60;99.90
25949;DHT22;13961;51.178;4.448;2024-03-02T13:23:27;13.90;99.90
25949;DHT22;13961;51.178;4.448;2024-03-02T13:25:54;13.80;99.90
25949;DHT22;13961;51.178;4.448;2024-03-02T13:28:20;13.70;99.90
25949;DHT22;13961;51.178;4.448;2024-03-02T13:30:45;13.40;99.90
25949;DHT22;13961;51.178;4.448;2024-03-02T13:33:11;13.20;99.90
25949;DHT22;13961;51.178;4.448;2024-03-02T13:35:36;13.10;99.90
25949;DHT22;13961;51.178;4.448;2024-03-02T13:38:03;13.10;99.90
25949;DHT22;13961;51.178;4.448;2024-03-02T13:40:28;13.10;99.90
25949;DHT22;13961;51.178;4.448;2024-03-02T13:42:55;13.10;99.90
25949;DHT22;13961;51.178;4.448;2024-03-02T13:45:21;13.20;99.90
25949;DHT22;13961;51.178;4.448;2024-03-02T13:47:47;13.20;99.90
25949;DHT22;13961;51.178;4.448;2024-03-02T13:50:12;13.30;99.90
25949;DHT22;13961;51.178;4.448;2024-03-02T13:52:38;13.20;99.90
25949;DHT22;13961;51.178;4.448;2024-03-02T13:55:04;13.30;99.90
25949;DHT22;13961;51.178;4.448;2024-03-02T13:57:29;13.30;99.90
25949;DHT22;13961;51.178;4.448;2024-03-02T13:59:56;13.40;99.90
25949;DHT22;13961;51.178;4.448;2024-03-02T14:02:22;13.50;99.90
25949;DHT22;13961;51.178;4.448;2024-03-02T14:04:48;13.50;99.90
25949;DHT22;13961;51.178;4.448;2024-03-02T14:07:15;13.60;99.90
25949;DHT22;13961;51.178;4.448;2024-03-02T14:09:40;13.60;99.90
25949;DHT22;13961;51.178;4.448;2024-03-02T14:12:07;13.70;99.90
25949;DHT22;13961;51.178;4.448;2024-03-02T14:14:33;13.80;99.90
25949;DHT22;13961;51.178;4.448;2024-03-02T14:17:00;13.80;99.90
25949;DHT22;13961;51.178;4.448;2024-03-02T14:19:31;13.90;99.90
25949;DHT22;13961;51.178;4.448;2024-03-02T14:21:58;13.60;99.90
25949;DHT22;13961;51.178;4.448;2024-03-02T14:24:23;13.40;99.90
25949;DHT22;13961;51.178;4.448;2024-03-02T14:26:51;13.30;99.90
25949;DHT22;13961;51.178;4.448;2024-03-02T14:29:17;13.30;99.90
25949;DHT22;13961;51.178;4.448;2024-03-02T14:31:43;13.40;99.90
25949;DHT22;13961;51.178;4.448;2024-03-02T14:34:09;13.30;99.90
25949;DHT22;13961;51.178;4.448;2024-03-02T14:36:35;13.50;99.90
25949;DHT22;13961;51.178;4.448;2024-03-02T14:39:00;13.30;99.90
25949;DHT22;13961;51.178;4.448;2024-03-02T14:41:26;13.30;99.90
25949;DHT22;13961;51.178;4.448;2024-03-02T14:43:52;13.60;99.90
25949;DHT22;13961;51.178;4.448;2024-03-02T14:46:17;13.80;99.90
25949;DHT22;13961;51.178;4.448;2024-03-02T14:48:44;13.90;99.90
25949;DHT22;13961;51.178;4.448;2024-03-02T14:51:10;13.80;99.90
25949;DHT22;13961;51.178;4.448;2024-03-02T14:53:36;13.80;99.90
25949;DHT22;13961;51.178;4.448;2024-03-02T14:56:04;13.70;99.90
25949;DHT22;13961;51.178;4.448;2024-03-02T14:58:29;13.70;99.90
25949;DHT22;13961;51.178;4.448;2024-03-02T15:00:55;13.70;99.90
25949;DHT22;13961;51.178;4.448;2024-03-02T15:03:21;13.60;99.90
25949;DHT22;13961;51.178;4.448;2024-03-02T15:05:47;13.50;99.90
25949;DHT22;13961;51.178;4.448;2024-03-02T15:08:17;13.50;99.90
25949;DHT22;13961;51.178;4.448;2024-03-02T15:10:42;13.50;99.90
25949;DHT22;13961;51.178;4.448;2024-03-02T15:13:08;13.40;99.90
25949;DHT22;13961;51.178;4.448;2024-03-02T15:15:33;13.50;99.90
25949;DHT22;13961;51.178;4.448;2024-03-02T15:17:59;13.40;99.90
25949;DHT22;13961;51.178;4.448;2024-03-02T15:20:25;13.40;99.90
25949;DHT22;13961;51.178;4.448;2024-03-02T15:22:50;13.40;99.90
25949;DHT22;13961;51.178;4.448;2024-03-02T15:25:16;13.40;99.90
25949;DHT22;13961;51.178;4.448;2024-03-02T15:27:42;13.40;99.90
25949;DHT22;13961;51.178;4.448;2024-03-02T15:30:08;13.30;99.90
25949;DHT22;13961;51.178;4.448;2024-03-02T15:32:34;13.30;99.90
25949;DHT22;13961;51.178;4.448;2024-03-02T15:35:00;13.30;99.90
25949;DHT22;13961;51.178;4.448;2024-03-02T15:37:25;13.40;99.90
25949;DHT22;13961;51.178;4.448;2024-03-02T15:39:51;13.60;99.90
25949;DHT22;13961;51.178;4.448;2024-03-02T15:42:17;13.40;99.90
25949;DHT22;13961;51.178;4.448;2024-03-02T15:44:43;13.30;99.90